Aurora, OR

11:46 PM PST on December 08, 2016 (GMT -0800)
Aurora State | | Change Station
Active Advisory: Freezing Rain Advisory

Elev 197 ft 45.25 °N, 122.77 °W | Updated 5 minutes ago

Rain
Rain
33 °F
Feels Like 30 °F
N
4
Wind Variable Wind from NE

Today
High -- | Low -- °F
--% Chance of Precip.
Yesterday
High -- | Low -- °F
Precip. -- in
Pressure 30.04 in
Visibility 9.0 miles
Clouds Few 500 ft
Overcast 1000 ft
Windchill 30 °F
Dew Point 33 °F
Humidity 100%
Rainfall 0.21 in
Snow Depth Not available.
7:37 AM 4:28 PM
Waxing Gibbous, 71% visible
SPECI KUAO 090741Z AUTO 05003KT 9SM FEW005 OVC010 01/01 A3004 RMK AO2 RAB25E26UPB26E36FZRAE10 P0000 I1000 T00060006
Pressure 30.04 in
Visibility 9.0 miles
Clouds Few 500 ft
Overcast 1000 ft
Windchill 30 °F
Dew Point 33 °F
Humidity 100%
Rainfall 0.21 in
Snow Depth Not available.
7:37 AM 4:28 PM
Waxing Gibbous, 71% visible
SPECI KUAO 090741Z AUTO 05003KT 9SM FEW005 OVC010 01/01 A3004 RMK AO2 RAB25E26UPB26E36FZRAE10 P0000 I1000 T00060006

10-Day Weather Forecast

Almanac

Astronomy

Dec. 08, 2016 Rise Set
Actual Time
Civil Twilight
Nautical Twilight
Astronomical Twilight
Moon
Length of Visible Light
Length of Day
Tomorrow will be .
, % of the Moon is Illuminated

Today's Extremes

State Highs State Lows

Community

WunderPhotos

Upload Photos

1,956,374 photos uploaded!

WunderBlog® & News

Nearby

Air Quality

  Air Quality AQ Index Pollutant
Not available.

Snow Depth

Station Depth Elevation

Earthquake Activity

City Distance Mag. Time & Date
Minimum magnitude displayed is 2.5.

Coastal Water Temperatures

Place Temperature

Stations

Nearby Weather Stations

Station Location Temp. Windchill Dew Point Humidity Wind Precip. Elev Updated Type
                   

Watches & Warnings

Freezing Rain Advisory
Issued: 9:39 PM PST Dec. 8, 2016 – National Weather Service

... Freezing Rain Advisory now in effect until 7 am PST Friday for
the central Willamette Valley...

The Freezing Rain Advisory for freezing rain is now in effect
until 7 am PST Friday.



* Timing... through late tonight.

* Additional freezing rain... generally a tenth of an inch or
less.

* Impacts... many roads... sidewalks and bike paths will be slick.






Precautionary/preparedness actions...

A Freezing Rain Advisory means that periods of freezing rain or
freezing drizzle will cause travel difficulties. Be prepared for
slippery roads. Slow down and use caution while driving.